Terminal Aerodrome Forecast
Issued by NWS

Home | Current Version | Previous Version | Text Only | Print | Product List | Glossary On
Versions: 1 2 3 4 5 6 7 8 9 10 11 12 13 14 15 16 17 18 19 20 21 22 23 24 25 26 27 28 29 30 31 32 33 34 35 36
000
FTUS44 KHGX 241723
TAFCXO
TAF
KCXO 241723Z 2418/2518 19012G22KT P6SM SCT250
     FM250000 18009KT P6SM SCT025
     FM250500 17009KT P6SM BKN015 BKN250
     FM250900 23005KT P6SM VCSH SCT005 BKN015 BKN250
     FM251500 32007KT P6SM SCT050 BKN250=

USA.gov is the U.S. government's official web portal to all federal, state and local government web resources and services.